TVS4451 TBPB-SBEG
Flight info
| Callsign | TVS4451 |
|---|---|
| Flight time | 2h 28m |
| Altitude | 37000 |
| Route | BGI UA632 TIM/N0449F380 UB681 BVI/N0449F390 UM402 ARVUM |
| Aircraft | B38M/M-SDE3FGHIJ1J3J4J7M3P2RWXYZ/LB1D1 |
Departure
| Time | 2026-04-28 15:54 |
|---|---|
| Airport | Grantley Adams International Airport (TBPB) |
Arrival
| Time | 2026-04-28 18:22 |
|---|---|
| Airport | Eduardo Gomes International Airport (SBEG) |
| Time | Latitude | Longitude | Altitude | Speed | Heading |
|---|---|---|---|---|---|
| 2026-04-28 15:32 | 13.08045 | -59.48099 | 178 ft | 0 kts | 346° |
| 2026-04-28 15:45 | 13.08024 | -59.48093 | 178 ft | 4 kts | 346° |
| 2026-04-28 15:45 | 13.07997 | -59.48087 | 178 ft | 4 kts | 346° |
| 2026-04-28 15:45 | 13.07973 | -59.48080 | 178 ft | 4 kts | 345° |
| 2026-04-28 15:46 | 13.07953 | -59.48069 | 178 ft | 4 kts | 294° |
| 2026-04-28 15:46 | 13.07952 | -59.48044 | 178 ft | 3 kts | 256° |
| 2026-04-28 15:46 | 13.07954 | -59.48035 | 178 ft | 0 kts | 256° |
| 2026-04-28 15:49 | 13.07951 | -59.48048 | 178 ft | 5 kts | 256° |
| 2026-04-28 15:49 | 13.07932 | -59.48127 | 178 ft | 18 kts | 256° |
| 2026-04-28 15:49 | 13.07892 | -59.48291 | 177 ft | 30 kts | 256° |
| 2026-04-28 15:49 | 13.07840 | -59.48501 | 178 ft | 29 kts | 256° |
| 2026-04-28 15:50 | 13.07792 | -59.48698 | 178 ft | 22 kts | 256° |
| 2026-04-28 15:50 | 13.07733 | -59.48814 | 178 ft | 18 kts | 255° |
| 2026-04-28 15:50 | 13.07697 | -59.48963 | 178 ft | 27 kts | 256° |
| 2026-04-28 15:50 | 13.07646 | -59.49170 | 178 ft | 30 kts | 256° |
| 2026-04-28 15:51 | 13.07596 | -59.49373 | 178 ft | 29 kts | 256° |
| 2026-04-28 15:51 | 13.07547 | -59.49576 | 178 ft | 30 kts | 255° |
| 2026-04-28 15:51 | 13.07497 | -59.49780 | 178 ft | 30 kts | 256° |
| 2026-04-28 15:51 | 13.07447 | -59.49981 | 178 ft | 29 kts | 256° |
| 2026-04-28 15:52 | 13.07397 | -59.50184 | 178 ft | 29 kts | 256° |
| 2026-04-28 15:52 | 13.07347 | -59.50389 | 178 ft | 30 kts | 256° |
| 2026-04-28 15:52 | 13.07298 | -59.50592 | 178 ft | 27 kts | 256° |
| 2026-04-28 15:52 | 13.07255 | -59.50717 | 177 ft | 15 kts | 224° |
| 2026-04-28 15:53 | 13.07154 | -59.50715 | 177 ft | 17 kts | 163° |
| 2026-04-28 15:53 | 13.07107 | -59.50698 | 178 ft | 1 kts | 115° |
| 2026-04-28 15:53 | 13.07108 | -59.50675 | 178 ft | 7 kts | 76° |
| 2026-04-28 15:53 | 13.07142 | -59.50535 | 178 ft | 47 kts | 76° |
| 2026-04-28 15:54 | 13.07289 | -59.49945 | 180 ft | 121 kts | 76° |
| 2026-04-28 15:54 | 13.07543 | -59.48913 | 236 ft | 171 kts | 76° |
| 2026-04-28 15:54 | 13.07851 | -59.47730 | 947 ft | 176 kts | 75° |
| 2026-04-28 15:54 | 13.08172 | -59.46500 | 1745 ft | 184 kts | 76° |
| 2026-04-28 15:55 | 13.08518 | -59.45160 | 2206 ft | 205 kts | 77° |
| 2026-04-28 15:55 | 13.08419 | -59.43617 | 2483 ft | 238 kts | 116° |
| 2026-04-28 15:55 | 13.07269 | -59.42360 | 3044 ft | 253 kts | 153° |
| 2026-04-28 15:55 | 13.05525 | -59.41991 | 3767 ft | 262 kts | 181° |
| 2026-04-28 15:56 | 13.03694 | -59.41928 | 4712 ft | 266 kts | 175° |
| 2026-04-28 15:56 | 13.01880 | -59.41727 | 6054 ft | 262 kts | 173° |
| 2026-04-28 15:56 | 13.00030 | -59.41476 | 7094 ft | 274 kts | 172° |
| 2026-04-28 15:56 | 12.98129 | -59.41179 | 8195 ft | 278 kts | 171° |
| 2026-04-28 15:57 | 12.96199 | -59.40862 | 9316 ft | 284 kts | 171° |
| 2026-04-28 15:57 | 12.94234 | -59.40527 | 10350 ft | 290 kts | 171° |
| 2026-04-28 15:57 | 12.92187 | -59.40167 | 11069 ft | 307 kts | 170° |
| 2026-04-28 15:57 | 12.90036 | -59.39776 | 11824 ft | 320 kts | 170° |
| 2026-04-28 15:58 | 12.87822 | -59.39377 | 12769 ft | 324 kts | 171° |
| 2026-04-28 15:58 | 12.85585 | -59.38979 | 13696 ft | 329 kts | 171° |
| 2026-04-28 15:58 | 12.83310 | -59.38574 | 14578 ft | 334 kts | 171° |
| 2026-04-28 15:58 | 12.81007 | -59.38166 | 15428 ft | 338 kts | 171° |
| 2026-04-28 15:59 | 12.78670 | -59.37752 | 16242 ft | 343 kts | 171° |
| 2026-04-28 15:59 | 12.76307 | -59.37333 | 17028 ft | 347 kts | 171° |
| 2026-04-28 15:59 | 12.73911 | -59.36909 | 17794 ft | 351 kts | 171° |
| 2026-04-28 15:59 | 12.71491 | -59.36480 | 18514 ft | 355 kts | 171° |
| 2026-04-28 16:00 | 12.69041 | -59.36047 | 19213 ft | 359 kts | 171° |
| 2026-04-28 16:00 | 12.66562 | -59.35609 | 19892 ft | 363 kts | 171° |
| 2026-04-28 16:00 | 12.64059 | -59.35166 | 20543 ft | 367 kts | 171° |
| 2026-04-28 16:00 | 12.61530 | -59.34719 | 21176 ft | 371 kts | 171° |
| 2026-04-28 16:01 | 12.58977 | -59.34268 | 21808 ft | 374 kts | 171° |
| 2026-04-28 16:01 | 12.56398 | -59.33812 | 22421 ft | 378 kts | 171° |
| 2026-04-28 16:01 | 12.53828 | -59.33358 | 23010 ft | 381 kts | 171° |
| 2026-04-28 16:01 | 12.51202 | -59.32895 | 23598 ft | 385 kts | 171° |
| 2026-04-28 16:02 | 12.48628 | -59.32440 | 24158 ft | 388 kts | 171° |
| 2026-04-28 16:02 | 12.45955 | -59.31968 | 24719 ft | 392 kts | 171° |
| 2026-04-28 16:02 | 12.43251 | -59.31491 | 25272 ft | 395 kts | 171° |
| 2026-04-28 16:02 | 12.40521 | -59.31010 | 25821 ft | 399 kts | 171° |
| 2026-04-28 16:03 | 12.37774 | -59.30525 | 26319 ft | 402 kts | 170° |
| 2026-04-28 16:03 | 12.35009 | -59.30038 | 26816 ft | 405 kts | 171° |
| 2026-04-28 16:03 | 12.32214 | -59.29545 | 27295 ft | 408 kts | 171° |
| 2026-04-28 16:03 | 12.29405 | -59.29051 | 27775 ft | 411 kts | 171° |
| 2026-04-28 16:04 | 12.26576 | -59.28552 | 28232 ft | 414 kts | 171° |
| 2026-04-28 16:04 | 12.23721 | -59.28049 | 28682 ft | 417 kts | 171° |
| 2026-04-28 16:04 | 12.20850 | -59.27544 | 29118 ft | 420 kts | 171° |
| 2026-04-28 16:04 | 12.17955 | -59.27035 | 29539 ft | 423 kts | 171° |
| 2026-04-28 16:05 | 12.15043 | -59.26523 | 29949 ft | 426 kts | 171° |
| 2026-04-28 16:05 | 12.12152 | -59.26014 | 30346 ft | 429 kts | 171° |
| 2026-04-28 16:05 | 12.09208 | -59.25497 | 30743 ft | 431 kts | 171° |
| 2026-04-28 16:05 | 12.06235 | -59.24974 | 31120 ft | 434 kts | 171° |
| 2026-04-28 16:06 | 12.03248 | -59.24450 | 31497 ft | 437 kts | 171° |
| 2026-04-28 16:06 | 12.00244 | -59.23922 | 31867 ft | 439 kts | 171° |
| 2026-04-28 16:06 | 11.97224 | -59.23391 | 32226 ft | 442 kts | 171° |
| 2026-04-28 16:06 | 11.94178 | -59.22857 | 32576 ft | 444 kts | 171° |
| 2026-04-28 16:07 | 11.91125 | -59.22321 | 32925 ft | 447 kts | 171° |
| 2026-04-28 16:07 | 11.88053 | -59.21782 | 33255 ft | 449 kts | 171° |
| 2026-04-28 16:07 | 11.81856 | -59.20695 | 33913 ft | 454 kts | 171° |
| 2026-04-28 16:08 | 11.78735 | -59.20148 | 34240 ft | 456 kts | 171° |
| 2026-04-28 16:08 | 11.75599 | -59.19599 | 34567 ft | 458 kts | 171° |
| 2026-04-28 16:08 | 11.72454 | -59.19050 | 34970 ft | 458 kts | 171° |
| 2026-04-28 16:09 | 11.66184 | -59.17957 | 35801 ft | 456 kts | 171° |
| 2026-04-28 16:09 | 11.63054 | -59.17412 | 36177 ft | 456 kts | 171° |
| 2026-04-28 16:09 | 11.59933 | -59.16870 | 36541 ft | 455 kts | 171° |
| 2026-04-28 16:10 | 11.53721 | -59.15786 | 37185 ft | 455 kts | 171° |
| 2026-04-28 16:10 | 11.50600 | -59.15240 | 37492 ft | 455 kts | 171° |
| 2026-04-28 16:10 | 11.44348 | -59.14148 | 38072 ft | 455 kts | 171° |
| 2026-04-28 16:11 | 11.38104 | -59.13058 | 38612 ft | 455 kts | 171° |
| 2026-04-28 16:11 | 11.31861 | -59.11968 | 39004 ft | 456 kts | 171° |
| 2026-04-28 16:12 | 11.22497 | -59.10335 | 39003 ft | 454 kts | 171° |
| 2026-04-28 16:13 | 11.13153 | -59.08706 | 39000 ft | 454 kts | 171° |
| 2026-04-28 16:14 | 11.00733 | -59.06542 | 39002 ft | 454 kts | 171° |
| 2026-04-28 16:15 | 10.88278 | -59.04373 | 38998 ft | 454 kts | 171° |
| 2026-04-28 16:15 | 10.82050 | -59.03290 | 39002 ft | 454 kts | 171° |
| 2026-04-28 16:16 | 10.72703 | -59.01664 | 38999 ft | 454 kts | 171° |
| 2026-04-28 16:17 | 10.63351 | -59.00039 | 39000 ft | 454 kts | 171° |
| 2026-04-28 16:17 | 10.57114 | -58.98956 | 39000 ft | 454 kts | 171° |
| 2026-04-28 16:18 | 10.50929 | -58.97882 | 39002 ft | 454 kts | 171° |
| 2026-04-28 16:18 | 10.44697 | -58.96800 | 39002 ft | 454 kts | 171° |
| 2026-04-28 16:19 | 10.38461 | -58.95718 | 39002 ft | 454 kts | 171° |
| 2026-04-28 16:19 | 10.32232 | -58.94638 | 39002 ft | 454 kts | 171° |
| 2026-04-28 16:20 | 10.26004 | -58.93559 | 38998 ft | 454 kts | 171° |
| 2026-04-28 16:20 | 10.19770 | -58.92479 | 39002 ft | 454 kts | 171° |
| 2026-04-28 16:21 | 10.13540 | -58.91400 | 38997 ft | 454 kts | 171° |
| 2026-04-28 16:21 | 10.07351 | -58.90328 | 39002 ft | 454 kts | 171° |
| 2026-04-28 16:22 | 10.01123 | -58.89250 | 39002 ft | 454 kts | 171° |
| 2026-04-28 16:22 | 9.94887 | -58.88171 | 39001 ft | 454 kts | 171° |
| 2026-04-28 16:23 | 9.88654 | -58.87094 | 39002 ft | 454 kts | 171° |
| 2026-04-28 16:23 | 9.82461 | -58.86023 | 39002 ft | 454 kts | 171° |
| 2026-04-28 16:24 | 9.76230 | -58.84946 | 39002 ft | 454 kts | 171° |
| 2026-04-28 16:24 | 9.69999 | -58.83870 | 39001 ft | 454 kts | 171° |
| 2026-04-28 16:25 | 9.63760 | -58.82793 | 39002 ft | 454 kts | 171° |
| 2026-04-28 16:25 | 9.57527 | -58.81717 | 39002 ft | 454 kts | 171° |
| 2026-04-28 16:26 | 9.51295 | -58.80642 | 38998 ft | 454 kts | 171° |
| 2026-04-28 16:26 | 9.45111 | -58.79575 | 39001 ft | 454 kts | 171° |
| 2026-04-28 16:27 | 9.38877 | -58.78500 | 39002 ft | 454 kts | 171° |
| 2026-04-28 16:28 | 9.29536 | -58.76890 | 38998 ft | 454 kts | 171° |
| 2026-04-28 16:28 | 9.23299 | -58.75816 | 39001 ft | 454 kts | 171° |
| 2026-04-28 16:29 | 9.13960 | -58.74208 | 39002 ft | 454 kts | 171° |
| 2026-04-28 16:30 | 9.04609 | -58.72599 | 39001 ft | 454 kts | 171° |
| 2026-04-28 16:30 | 8.98382 | -58.71528 | 39002 ft | 454 kts | 171° |
| 2026-04-28 16:31 | 8.92189 | -58.70452 | 39001 ft | 454 kts | 170° |
| 2026-04-28 16:31 | 8.85977 | -58.69297 | 39002 ft | 454 kts | 170° |
| 2026-04-28 16:32 | 8.79753 | -58.68147 | 39002 ft | 454 kts | 170° |
| 2026-04-28 16:32 | 8.70423 | -58.66424 | 38993 ft | 454 kts | 170° |
| 2026-04-28 16:33 | 8.66261 | -58.65656 | 39002 ft | 454 kts | 170° |
| 2026-04-28 16:33 | 8.59038 | -58.64324 | 39002 ft | 454 kts | 170° |
| 2026-04-28 16:34 | 8.52814 | -58.63176 | 39002 ft | 454 kts | 170° |
| 2026-04-28 16:34 | 8.46601 | -58.62031 | 39002 ft | 454 kts | 170° |
| 2026-04-28 16:35 | 8.40378 | -58.60884 | 39002 ft | 454 kts | 170° |
| 2026-04-28 16:35 | 8.34157 | -58.59738 | 39002 ft | 454 kts | 170° |
| 2026-04-28 16:36 | 8.27985 | -58.58602 | 38997 ft | 454 kts | 170° |
| 2026-04-28 16:36 | 8.21765 | -58.57456 | 38999 ft | 454 kts | 170° |
| 2026-04-28 16:37 | 8.15549 | -58.56310 | 39002 ft | 454 kts | 170° |
| 2026-04-28 16:38 | 8.06221 | -58.54591 | 39002 ft | 454 kts | 170° |
| 2026-04-28 16:38 | 8.00006 | -58.53446 | 38998 ft | 454 kts | 170° |
| 2026-04-28 16:39 | 7.93790 | -58.52301 | 38996 ft | 454 kts | 170° |
| 2026-04-28 16:39 | 7.87566 | -58.51155 | 38999 ft | 454 kts | 170° |
| 2026-04-28 16:40 | 7.81354 | -58.50012 | 38997 ft | 454 kts | 170° |
| 2026-04-28 16:40 | 7.75135 | -58.48867 | 39002 ft | 454 kts | 170° |
| 2026-04-28 16:41 | 7.68921 | -58.47731 | 38999 ft | 454 kts | 170° |
| 2026-04-28 16:41 | 7.62744 | -58.46602 | 39002 ft | 454 kts | 170° |
| 2026-04-28 16:42 | 7.56524 | -58.45466 | 39001 ft | 454 kts | 170° |
| 2026-04-28 16:42 | 7.50301 | -58.44329 | 39002 ft | 454 kts | 170° |
| 2026-04-28 16:43 | 7.44075 | -58.43193 | 39002 ft | 454 kts | 170° |
| 2026-04-28 16:43 | 7.37853 | -58.42057 | 39002 ft | 454 kts | 170° |
| 2026-04-28 16:44 | 7.31677 | -58.40930 | 38999 ft | 454 kts | 170° |
| 2026-04-28 16:44 | 7.25463 | -58.39796 | 39002 ft | 454 kts | 170° |
| 2026-04-28 16:45 | 7.19242 | -58.38662 | 38995 ft | 454 kts | 170° |
| 2026-04-28 16:45 | 7.13018 | -58.37527 | 38998 ft | 454 kts | 170° |
| 2026-04-28 16:46 | 7.06809 | -58.36396 | 39002 ft | 454 kts | 170° |
| 2026-04-28 16:46 | 7.00588 | -58.35262 | 39002 ft | 454 kts | 170° |
| 2026-04-28 16:47 | 6.94408 | -58.34136 | 39000 ft | 454 kts | 170° |
| 2026-04-28 16:47 | 6.88192 | -58.33004 | 39000 ft | 454 kts | 170° |
| 2026-04-28 16:48 | 6.81968 | -58.31871 | 39002 ft | 454 kts | 170° |
| 2026-04-28 16:48 | 6.75757 | -58.30740 | 38994 ft | 454 kts | 170° |
| 2026-04-28 16:49 | 6.69543 | -58.29610 | 38999 ft | 454 kts | 170° |
| 2026-04-28 16:49 | 6.63322 | -58.28478 | 39001 ft | 454 kts | 170° |
| 2026-04-28 16:50 | 6.57137 | -58.27353 | 38998 ft | 454 kts | 170° |
| 2026-04-28 16:50 | 6.50896 | -58.26843 | 39001 ft | 451 kts | 189° |
| 2026-04-28 16:50 | 6.47887 | -58.27691 | 38994 ft | 450 kts | 205° |
| 2026-04-28 16:51 | 6.45137 | -58.29197 | 39004 ft | 451 kts | 211° |
| 2026-04-28 16:51 | 6.39784 | -58.32532 | 38992 ft | 453 kts | 212° |
| 2026-04-28 16:52 | 6.34485 | -58.35975 | 39001 ft | 453 kts | 213° |
| 2026-04-28 16:52 | 6.29217 | -58.39437 | 38995 ft | 453 kts | 213° |
| 2026-04-28 16:53 | 6.23951 | -58.42902 | 39004 ft | 453 kts | 213° |
| 2026-04-28 16:53 | 6.18676 | -58.46372 | 39002 ft | 453 kts | 213° |
| 2026-04-28 16:54 | 6.13439 | -58.49817 | 38992 ft | 452 kts | 213° |
| 2026-04-28 16:54 | 6.08172 | -58.53280 | 38997 ft | 452 kts | 213° |
| 2026-04-28 16:55 | 6.02900 | -58.56746 | 38995 ft | 452 kts | 213° |
| 2026-04-28 16:55 | 5.97638 | -58.60210 | 38997 ft | 452 kts | 214° |
| 2026-04-28 16:56 | 5.92410 | -58.63742 | 39001 ft | 452 kts | 214° |
| 2026-04-28 16:56 | 5.87172 | -58.67272 | 39003 ft | 452 kts | 214° |
| 2026-04-28 16:57 | 5.81945 | -58.70793 | 38999 ft | 452 kts | 214° |
| 2026-04-28 16:57 | 5.76744 | -58.74296 | 39001 ft | 452 kts | 214° |
| 2026-04-28 16:58 | 5.71514 | -58.77818 | 38995 ft | 452 kts | 214° |
| 2026-04-28 16:58 | 5.66282 | -58.81339 | 39006 ft | 452 kts | 214° |
| 2026-04-28 16:59 | 5.61049 | -58.84862 | 38998 ft | 452 kts | 214° |
| 2026-04-28 16:59 | 5.55823 | -58.88379 | 38998 ft | 452 kts | 214° |
| 2026-04-28 17:00 | 5.50588 | -58.91900 | 39001 ft | 452 kts | 214° |
| 2026-04-28 17:00 | 5.45357 | -58.95414 | 39004 ft | 452 kts | 213° |
| 2026-04-28 17:01 | 5.40098 | -58.98890 | 38994 ft | 452 kts | 213° |
| 2026-04-28 17:01 | 5.34845 | -59.02366 | 39004 ft | 452 kts | 213° |
| 2026-04-28 17:02 | 5.29625 | -59.05820 | 38997 ft | 452 kts | 213° |
| 2026-04-28 17:02 | 5.24363 | -59.09301 | 38998 ft | 452 kts | 213° |
| 2026-04-28 17:03 | 5.16480 | -59.14515 | 39003 ft | 452 kts | 213° |
| 2026-04-28 17:03 | 5.11224 | -59.17990 | 39000 ft | 452 kts | 213° |
| 2026-04-28 17:04 | 5.03341 | -59.23201 | 38995 ft | 452 kts | 213° |
| 2026-04-28 17:05 | 4.95490 | -59.28390 | 38997 ft | 452 kts | 213° |
| 2026-04-28 17:06 | 4.87648 | -59.33651 | 38995 ft | 452 kts | 214° |
| 2026-04-28 17:06 | 4.79817 | -59.38936 | 38991 ft | 452 kts | 214° |
| 2026-04-28 17:07 | 4.74592 | -59.42461 | 39007 ft | 452 kts | 214° |
| 2026-04-28 17:07 | 4.69368 | -59.45984 | 39001 ft | 452 kts | 214° |
| 2026-04-28 17:08 | 4.64148 | -59.49504 | 38999 ft | 452 kts | 214° |
| 2026-04-28 17:08 | 4.58920 | -59.53029 | 38999 ft | 452 kts | 214° |
| 2026-04-28 17:09 | 4.53695 | -59.56551 | 38992 ft | 452 kts | 214° |
| 2026-04-28 17:09 | 4.48511 | -59.60045 | 38997 ft | 452 kts | 214° |
| 2026-04-28 17:10 | 4.43287 | -59.63566 | 39005 ft | 452 kts | 214° |
| 2026-04-28 17:10 | 4.38064 | -59.67084 | 38997 ft | 452 kts | 214° |
| 2026-04-28 17:11 | 4.32823 | -59.70585 | 39002 ft | 452 kts | 213° |
| 2026-04-28 17:11 | 4.27586 | -59.74073 | 39005 ft | 452 kts | 213° |
| 2026-04-28 17:12 | 4.22345 | -59.77564 | 38997 ft | 452 kts | 213° |
| 2026-04-28 17:12 | 4.17108 | -59.81052 | 38998 ft | 452 kts | 213° |
| 2026-04-28 17:13 | 4.11856 | -59.84549 | 39002 ft | 452 kts | 213° |
| 2026-04-28 17:13 | 4.06652 | -59.88014 | 39003 ft | 452 kts | 213° |
| 2026-04-28 17:14 | 4.01411 | -59.91503 | 39003 ft | 452 kts | 213° |
| 2026-04-28 17:14 | 3.96171 | -59.94990 | 38998 ft | 452 kts | 213° |
| 2026-04-28 17:15 | 3.90932 | -59.98477 | 39002 ft | 452 kts | 213° |
| 2026-04-28 17:15 | 3.85692 | -60.01964 | 39004 ft | 452 kts | 213° |
| 2026-04-28 17:16 | 3.80456 | -60.05447 | 39000 ft | 452 kts | 213° |
| 2026-04-28 17:16 | 3.75215 | -60.08934 | 38997 ft | 452 kts | 213° |
| 2026-04-28 17:17 | 3.69978 | -60.12416 | 39001 ft | 452 kts | 213° |
| 2026-04-28 17:17 | 3.64737 | -60.15902 | 39001 ft | 452 kts | 213° |
| 2026-04-28 17:18 | 3.59536 | -60.19360 | 39004 ft | 452 kts | 213° |
| 2026-04-28 17:18 | 3.54294 | -60.22844 | 38997 ft | 452 kts | 213° |
| 2026-04-28 17:19 | 3.49054 | -60.26327 | 39005 ft | 452 kts | 213° |
| 2026-04-28 17:19 | 3.43816 | -60.29809 | 39004 ft | 452 kts | 213° |
| 2026-04-28 17:20 | 3.39427 | -60.32724 | 38995 ft | 452 kts | 213° |
| 2026-04-28 17:20 | 3.33335 | -60.36767 | 38992 ft | 452 kts | 213° |
| 2026-04-28 17:21 | 3.28979 | -60.39658 | 39001 ft | 452 kts | 213° |
| 2026-04-28 17:22 | 3.21121 | -60.44873 | 38994 ft | 452 kts | 213° |
| 2026-04-28 17:22 | 3.15877 | -60.48352 | 39004 ft | 452 kts | 213° |
| 2026-04-28 17:23 | 3.08011 | -60.53569 | 39003 ft | 452 kts | 213° |
| 2026-04-28 17:23 | 3.02800 | -60.57025 | 39000 ft | 452 kts | 213° |
| 2026-04-28 17:24 | 2.97561 | -60.60500 | 38997 ft | 452 kts | 213° |
| 2026-04-28 17:24 | 2.92314 | -60.63979 | 38997 ft | 452 kts | 213° |
| 2026-04-28 17:25 | 2.83947 | -60.68044 | 38995 ft | 450 kts | 186° |
| 2026-04-28 17:26 | 2.77680 | -60.67870 | 38996 ft | 453 kts | 176° |
| 2026-04-28 17:26 | 2.71397 | -60.67353 | 38997 ft | 453 kts | 175° |
| 2026-04-28 17:27 | 2.65121 | -60.66768 | 38993 ft | 453 kts | 175° |
| 2026-04-28 17:27 | 2.58882 | -60.66173 | 39000 ft | 453 kts | 175° |
| 2026-04-28 17:28 | 2.52602 | -60.65573 | 39000 ft | 453 kts | 175° |
| 2026-04-28 17:28 | 2.43194 | -60.64674 | 39003 ft | 453 kts | 175° |
| 2026-04-28 17:29 | 2.36918 | -60.64074 | 39001 ft | 453 kts | 175° |
| 2026-04-28 17:30 | 2.27500 | -60.63175 | 39000 ft | 452 kts | 175° |
| 2026-04-28 17:30 | 2.18097 | -60.62258 | 39002 ft | 453 kts | 174° |
| 2026-04-28 17:31 | 2.08736 | -60.61240 | 39003 ft | 453 kts | 174° |
| 2026-04-28 17:32 | 1.99339 | -60.60225 | 39002 ft | 453 kts | 174° |
| 2026-04-28 17:32 | 1.93081 | -60.59550 | 39002 ft | 453 kts | 174° |
| 2026-04-28 17:33 | 1.86807 | -60.58873 | 39007 ft | 453 kts | 174° |
| 2026-04-28 17:33 | 1.81605 | -60.58312 | 38998 ft | 452 kts | 174° |
| 2026-04-28 17:34 | 1.74272 | -60.57521 | 39003 ft | 453 kts | 174° |
| 2026-04-28 17:34 | 1.68014 | -60.56846 | 39000 ft | 453 kts | 174° |
| 2026-04-28 17:35 | 1.61787 | -60.56174 | 39002 ft | 453 kts | 174° |
| 2026-04-28 17:35 | 1.55527 | -60.55499 | 39004 ft | 452 kts | 174° |
| 2026-04-28 17:36 | 1.49265 | -60.54823 | 38998 ft | 452 kts | 174° |
| 2026-04-28 17:36 | 1.42995 | -60.54148 | 39004 ft | 452 kts | 174° |
| 2026-04-28 17:37 | 1.36736 | -60.53473 | 38994 ft | 453 kts | 174° |
| 2026-04-28 17:37 | 1.30473 | -60.52797 | 38999 ft | 452 kts | 174° |
| 2026-04-28 17:38 | 1.24210 | -60.52122 | 39000 ft | 452 kts | 174° |
| 2026-04-28 17:38 | 1.17951 | -60.51447 | 39002 ft | 452 kts | 174° |
| 2026-04-28 17:39 | 1.11689 | -60.50772 | 38999 ft | 452 kts | 174° |
| 2026-04-28 17:40 | 1.02335 | -60.49763 | 39002 ft | 452 kts | 174° |
| 2026-04-28 17:40 | 0.96070 | -60.49088 | 39004 ft | 452 kts | 174° |
| 2026-04-28 17:41 | 0.89810 | -60.48413 | 39002 ft | 452 kts | 174° |
| 2026-04-28 17:41 | 0.83552 | -60.47739 | 39005 ft | 452 kts | 174° |
| 2026-04-28 17:42 | 0.77289 | -60.47063 | 39002 ft | 452 kts | 174° |
| 2026-04-28 17:42 | 0.71276 | -60.46415 | 39003 ft | 452 kts | 174° |
| 2026-04-28 17:43 | 0.65019 | -60.45757 | 38997 ft | 452 kts | 177° |
| 2026-04-28 17:43 | 0.58732 | -60.45666 | 38996 ft | 452 kts | 180° |
| 2026-04-28 17:44 | 0.52440 | -60.45631 | 39000 ft | 452 kts | 180° |
| 2026-04-28 17:44 | 0.46149 | -60.45602 | 39002 ft | 452 kts | 180° |
| 2026-04-28 17:45 | 0.39858 | -60.45573 | 39002 ft | 452 kts | 180° |
| 2026-04-28 17:45 | 0.33564 | -60.45545 | 38998 ft | 452 kts | 180° |
| 2026-04-28 17:46 | 0.27314 | -60.45517 | 39001 ft | 452 kts | 180° |
| 2026-04-28 17:46 | 0.21027 | -60.45488 | 39000 ft | 452 kts | 180° |
| 2026-04-28 17:47 | 0.14738 | -60.45460 | 38998 ft | 452 kts | 180° |
| 2026-04-28 17:47 | 0.08441 | -60.45432 | 38998 ft | 452 kts | 180° |
| 2026-04-28 17:48 | 0.02153 | -60.45403 | 38998 ft | 452 kts | 180° |
| 2026-04-28 17:48 | -0.04141 | -60.45374 | 39002 ft | 452 kts | 180° |
| 2026-04-28 17:49 | -0.10431 | -60.45346 | 39002 ft | 452 kts | 180° |
| 2026-04-28 17:49 | -0.16720 | -60.45318 | 39002 ft | 452 kts | 180° |
| 2026-04-28 17:50 | -0.23010 | -60.45289 | 38996 ft | 452 kts | 180° |
| 2026-04-28 17:50 | -0.29301 | -60.45261 | 39002 ft | 452 kts | 180° |
| 2026-04-28 17:51 | -0.35590 | -60.45232 | 39002 ft | 452 kts | 180° |
| 2026-04-28 17:51 | -0.41877 | -60.45204 | 39002 ft | 452 kts | 180° |
| 2026-04-28 17:52 | -0.48168 | -60.45176 | 38995 ft | 452 kts | 180° |
| 2026-04-28 17:52 | -0.57600 | -60.45133 | 38995 ft | 452 kts | 180° |
| 2026-04-28 17:53 | -0.63888 | -60.45105 | 39000 ft | 452 kts | 180° |
| 2026-04-28 17:53 | -0.70181 | -60.45076 | 39002 ft | 452 kts | 180° |
| 2026-04-28 17:54 | -0.76466 | -60.45048 | 39002 ft | 452 kts | 180° |
| 2026-04-28 17:54 | -0.82711 | -60.45019 | 38997 ft | 452 kts | 180° |
| 2026-04-28 17:55 | -0.88998 | -60.44991 | 38987 ft | 451 kts | 180° |
| 2026-04-28 17:55 | -0.92130 | -60.44977 | 38282 ft | 451 kts | 180° |
| 2026-04-28 17:55 | -0.95293 | -60.44962 | 37260 ft | 459 kts | 180° |
| 2026-04-28 17:56 | -0.98487 | -60.44948 | 36631 ft | 457 kts | 180° |
| 2026-04-28 17:56 | -1.01640 | -60.44934 | 36187 ft | 450 kts | 180° |
| 2026-04-28 17:56 | -1.04753 | -60.44920 | 35662 ft | 445 kts | 180° |
| 2026-04-28 17:56 | -1.07844 | -60.44906 | 35073 ft | 443 kts | 180° |
| 2026-04-28 17:57 | -1.10912 | -60.44892 | 34499 ft | 440 kts | 180° |
| 2026-04-28 17:57 | -1.13967 | -60.44878 | 33950 ft | 437 kts | 180° |
| 2026-04-28 17:57 | -1.16692 | -60.44866 | 33449 ft | 435 kts | 180° |
| 2026-04-28 17:57 | -1.19710 | -60.44852 | 32908 ft | 432 kts | 180° |
| 2026-04-28 17:58 | -1.22703 | -60.44838 | 32351 ft | 429 kts | 180° |
| 2026-04-28 17:58 | -1.25677 | -60.44825 | 31825 ft | 426 kts | 180° |
| 2026-04-28 17:58 | -1.28633 | -60.44812 | 31301 ft | 423 kts | 180° |
| 2026-04-28 17:58 | -1.31566 | -60.44798 | 30776 ft | 420 kts | 180° |
| 2026-04-28 17:59 | -1.34479 | -60.44785 | 30267 ft | 417 kts | 180° |
| 2026-04-28 17:59 | -1.37372 | -60.44772 | 29768 ft | 414 kts | 180° |
| 2026-04-28 17:59 | -1.40243 | -60.44759 | 29278 ft | 411 kts | 180° |
| 2026-04-28 17:59 | -1.43090 | -60.44746 | 28796 ft | 407 kts | 180° |
| 2026-04-28 18:00 | -1.45911 | -60.44734 | 28323 ft | 404 kts | 180° |
| 2026-04-28 18:00 | -1.48710 | -60.44721 | 27857 ft | 401 kts | 180° |
| 2026-04-28 18:00 | -1.51489 | -60.44708 | 27401 ft | 397 kts | 180° |
| 2026-04-28 18:00 | -1.54242 | -60.44696 | 26948 ft | 394 kts | 180° |
| 2026-04-28 18:01 | -1.56970 | -60.44683 | 26509 ft | 391 kts | 180° |
| 2026-04-28 18:01 | -1.59681 | -60.44671 | 26075 ft | 387 kts | 180° |
| 2026-04-28 18:01 | -1.62365 | -60.44659 | 25649 ft | 384 kts | 180° |
| 2026-04-28 18:01 | -1.65030 | -60.44647 | 25222 ft | 381 kts | 180° |
| 2026-04-28 18:02 | -1.67635 | -60.44635 | 24816 ft | 378 kts | 180° |
| 2026-04-28 18:02 | -1.70292 | -60.44623 | 24401 ft | 375 kts | 180° |
| 2026-04-28 18:02 | -1.72854 | -60.44612 | 24003 ft | 372 kts | 180° |
| 2026-04-28 18:02 | -1.75468 | -60.44502 | 23536 ft | 370 kts | 171° |
| 2026-04-28 18:03 | -1.77952 | -60.44020 | 23146 ft | 367 kts | 169° |
| 2026-04-28 18:03 | -1.80454 | -60.43556 | 22784 ft | 364 kts | 170° |
| 2026-04-28 18:03 | -1.82929 | -60.43102 | 22412 ft | 360 kts | 170° |
| 2026-04-28 18:03 | -1.85384 | -60.42652 | 22023 ft | 357 kts | 170° |
| 2026-04-28 18:04 | -1.87822 | -60.42206 | 21640 ft | 355 kts | 170° |
| 2026-04-28 18:04 | -1.90240 | -60.41764 | 21262 ft | 352 kts | 170° |
| 2026-04-28 18:04 | -1.92638 | -60.41326 | 20888 ft | 349 kts | 170° |
| 2026-04-28 18:04 | -1.95013 | -60.40892 | 20517 ft | 346 kts | 170° |
| 2026-04-28 18:05 | -1.97374 | -60.40460 | 20149 ft | 343 kts | 170° |
| 2026-04-28 18:05 | -1.98926 | -60.40176 | 19908 ft | 341 kts | 170° |
| 2026-04-28 18:05 | -2.02033 | -60.39608 | 19424 ft | 338 kts | 170° |
| 2026-04-28 18:05 | -2.04335 | -60.39187 | 19061 ft | 335 kts | 170° |
| 2026-04-28 18:06 | -2.06616 | -60.38770 | 18702 ft | 332 kts | 170° |
| 2026-04-28 18:06 | -2.08881 | -60.38356 | 18357 ft | 329 kts | 170° |
| 2026-04-28 18:06 | -2.11127 | -60.37946 | 18004 ft | 327 kts | 170° |
| 2026-04-28 18:06 | -2.13353 | -60.37538 | 17647 ft | 324 kts | 170° |
| 2026-04-28 18:07 | -2.15565 | -60.37134 | 17314 ft | 322 kts | 170° |
| 2026-04-28 18:07 | -2.17757 | -60.36733 | 16959 ft | 319 kts | 170° |
| 2026-04-28 18:07 | -2.19930 | -60.36336 | 16630 ft | 316 kts | 170° |
| 2026-04-28 18:07 | -2.22088 | -60.35941 | 16292 ft | 314 kts | 170° |
| 2026-04-28 18:08 | -2.24226 | -60.35550 | 15956 ft | 311 kts | 170° |
| 2026-04-28 18:08 | -2.26349 | -60.35162 | 15622 ft | 309 kts | 170° |
| 2026-04-28 18:08 | -2.27744 | -60.34907 | 15401 ft | 307 kts | 170° |
| 2026-04-28 18:08 | -2.29843 | -60.34523 | 15071 ft | 305 kts | 170° |
| 2026-04-28 18:09 | -2.32617 | -60.34016 | 14634 ft | 302 kts | 170° |
| 2026-04-28 18:09 | -2.33984 | -60.33766 | 14417 ft | 300 kts | 170° |
| 2026-04-28 18:09 | -2.36030 | -60.33391 | 14085 ft | 298 kts | 170° |
| 2026-04-28 18:09 | -2.38063 | -60.33019 | 13770 ft | 296 kts | 170° |
| 2026-04-28 18:10 | -2.40078 | -60.32651 | 13445 ft | 294 kts | 170° |
| 2026-04-28 18:10 | -2.42085 | -60.32284 | 13134 ft | 292 kts | 170° |
| 2026-04-28 18:10 | -2.44102 | -60.31915 | 12810 ft | 298 kts | 170° |
| 2026-04-28 18:10 | -2.46153 | -60.31540 | 12480 ft | 301 kts | 170° |
| 2026-04-28 18:11 | -2.48213 | -60.31163 | 12165 ft | 301 kts | 170° |
| 2026-04-28 18:11 | -2.50274 | -60.30786 | 11830 ft | 301 kts | 170° |
| 2026-04-28 18:11 | -2.52330 | -60.30410 | 11496 ft | 301 kts | 170° |
| 2026-04-28 18:11 | -2.54388 | -60.30033 | 11119 ft | 300 kts | 170° |
| 2026-04-28 18:12 | -2.56431 | -60.29659 | 10795 ft | 297 kts | 170° |
| 2026-04-28 18:12 | -2.58455 | -60.29288 | 10470 ft | 294 kts | 170° |
| 2026-04-28 18:12 | -2.60462 | -60.28921 | 10148 ft | 292 kts | 170° |
| 2026-04-28 18:12 | -2.62451 | -60.28557 | 9832 ft | 289 kts | 170° |
| 2026-04-28 18:13 | -2.64394 | -60.28201 | 9520 ft | 287 kts | 170° |
| 2026-04-28 18:13 | -2.66373 | -60.27839 | 9204 ft | 284 kts | 170° |
| 2026-04-28 18:13 | -2.68282 | -60.27490 | 8933 ft | 280 kts | 170° |
| 2026-04-28 18:13 | -2.70215 | -60.27136 | 8650 ft | 277 kts | 170° |
| 2026-04-28 18:14 | -2.72101 | -60.26790 | 8356 ft | 274 kts | 170° |
| 2026-04-28 18:14 | -2.73946 | -60.26452 | 8062 ft | 273 kts | 170° |
| 2026-04-28 18:14 | -2.75844 | -60.26105 | 7743 ft | 274 kts | 170° |
| 2026-04-28 18:14 | -2.77675 | -60.25770 | 7472 ft | 270 kts | 170° |
| 2026-04-28 18:15 | -2.79520 | -60.25432 | 7202 ft | 267 kts | 170° |
| 2026-04-28 18:15 | -2.81337 | -60.25099 | 6929 ft | 264 kts | 170° |
| 2026-04-28 18:15 | -2.83139 | -60.24769 | 6656 ft | 262 kts | 170° |
| 2026-04-28 18:15 | -2.84923 | -60.24442 | 6371 ft | 259 kts | 170° |
| 2026-04-28 18:16 | -2.86686 | -60.24119 | 6099 ft | 257 kts | 170° |
| 2026-04-28 18:16 | -2.88436 | -60.23799 | 5834 ft | 254 kts | 170° |
| 2026-04-28 18:16 | -2.90172 | -60.23481 | 5539 ft | 253 kts | 170° |
| 2026-04-28 18:16 | -2.91901 | -60.23164 | 5256 ft | 251 kts | 170° |
| 2026-04-28 18:17 | -2.93615 | -60.22855 | 4990 ft | 249 kts | 172° |
| 2026-04-28 18:17 | -2.95336 | -60.22785 | 4699 ft | 247 kts | 181° |
| 2026-04-28 18:17 | -2.97040 | -60.22806 | 4448 ft | 243 kts | 181° |
| 2026-04-28 18:17 | -2.98722 | -60.22820 | 4182 ft | 240 kts | 181° |
| 2026-04-28 18:18 | -3.00383 | -60.22830 | 3922 ft | 237 kts | 181° |
| 2026-04-28 18:18 | -3.01999 | -60.22751 | 3636 ft | 229 kts | 168° |
| 2026-04-28 18:18 | -3.03390 | -60.22037 | 3292 ft | 224 kts | 138° |
| 2026-04-28 18:18 | -3.04023 | -60.21214 | 3125 ft | 220 kts | 117° |
| 2026-04-28 18:19 | -3.04277 | -60.19263 | 2779 ft | 216 kts | 78° |
| 2026-04-28 18:19 | -3.03925 | -60.17819 | 2537 ft | 213 kts | 81° |
| 2026-04-28 18:19 | -3.03795 | -60.16348 | 2210 ft | 207 kts | 90° |
| 2026-04-28 18:19 | -3.03832 | -60.14998 | 2003 ft | 184 kts | 89° |
| 2026-04-28 18:20 | -3.03846 | -60.13756 | 1734 ft | 172 kts | 88° |
| 2026-04-28 18:20 | -3.03845 | -60.12594 | 1492 ft | 161 kts | 88° |
| 2026-04-28 18:20 | -3.03839 | -60.11527 | 1315 ft | 147 kts | 88° |
| 2026-04-28 18:20 | -3.03850 | -60.10524 | 1129 ft | 142 kts | 89° |
| 2026-04-28 18:21 | -3.03851 | -60.09549 | 949 ft | 139 kts | 89° |
| 2026-04-28 18:21 | -3.03852 | -60.08584 | 771 ft | 139 kts | 89° |
| 2026-04-28 18:21 | -3.03849 | -60.07614 | 622 ft | 140 kts | 88° |
| 2026-04-28 18:21 | -3.03852 | -60.06634 | 426 ft | 141 kts | 89° |
| 2026-04-28 18:22 | -3.03857 | -60.05662 | 276 ft | 132 kts | 89° |
| 2026-04-28 18:22 | -3.03859 | -60.04944 | 274 ft | 71 kts | 90° |
| 2026-04-28 18:22 | -3.03860 | -60.04445 | 275 ft | 70 kts | 90° |
| 2026-04-28 18:22 | -3.03862 | -60.04024 | 275 ft | 48 kts | 90° |
| 2026-04-28 18:23 | -3.03860 | -60.03829 | 274 ft | 16 kts | 75° |
| 2026-04-28 18:23 | -3.03772 | -60.03765 | 274 ft | 14 kts | 359° |
| 2026-04-28 18:23 | -3.03692 | -60.03824 | 274 ft | 16 kts | 295° |
| 2026-04-28 18:23 | -3.03657 | -60.03947 | 274 ft | 20 kts | 285° |
| 2026-04-28 18:24 | -3.03614 | -60.04092 | 274 ft | 23 kts | 284° |
| 2026-04-28 18:24 | -3.03586 | -60.04200 | 274 ft | 22 kts | 288° |
| 2026-04-28 18:24 | -3.03500 | -60.04327 | 274 ft | 12 kts | 323° |
| 2026-04-28 18:24 | -3.03416 | -60.04366 | 274 ft | 15 kts | 343° |
| 2026-04-28 18:25 | -3.03334 | -60.04423 | 274 ft | 14 kts | 280° |
| 2026-04-28 18:25 | -3.03345 | -60.04529 | 274 ft | 17 kts | 264° |
| 2026-04-28 18:25 | -3.03359 | -60.04661 | 274 ft | 21 kts | 262° |
| 2026-04-28 18:26 | -3.03322 | -60.04765 | 274 ft | 9 kts | 353° |
| 2026-04-28 18:26 | -3.03276 | -60.04771 | 274 ft | 4 kts | 352° |
| 2026-04-28 18:26 | -3.03261 | -60.04773 | 274 ft | 0 kts | 353° |